createdAt,value
2022-11-05T10:37:11.360Z,69.46
2022-11-05T10:54:08.456Z,68.99
2022-11-05T10:59:11.994Z,69.17
2022-11-05T11:04:22.411Z,69.11
2022-11-05T11:09:47.857Z,68.84
2022-11-05T11:15:00.350Z,68.79
2022-11-05T11:20:22.071Z,68.42
2022-11-05T11:25:39.951Z,68.06
2022-11-05T11:30:36.409Z,68.48
2022-11-05T11:35:35.421Z,68.20
2022-11-05T11:40:34.798Z,67.90
2022-11-05T11:46:16.827Z,67.76
2022-11-05T11:51:49.739Z,67.38
2022-11-05T13:27:46.280Z,65.93
2022-11-05T16:51:49.541Z,66.90
2022-11-05T16:56:47.393Z,66.96
2022-11-05T17:01:50.324Z,66.67
2022-11-05T17:06:52.406Z,66.66
2022-11-05T17:11:49.146Z,66.66
2022-11-05T17:16:45.768Z,66.62
2022-11-05T17:21:44.623Z,66.64
2022-11-05T17:26:43.829Z,66.88
2022-11-05T17:31:40.867Z,66.51
2022-11-05T17:36:37.577Z,66.84
2022-11-05T17:41:34.301Z,66.45
2022-11-05T17:46:30.968Z,66.40
2022-11-05T17:51:27.489Z,66.96
2022-11-05T17:56:33.866Z,66.82
2022-11-05T18:01:38.871Z,66.97
2022-11-05T18:06:39.691Z,66.98
2022-11-05T18:11:37.676Z,66.90
2022-11-05T18:23:18.056Z,66.74
2022-11-05T18:28:26.985Z,67.18
2022-11-05T18:33:24.347Z,66.89
2022-11-05T18:38:23.856Z,66.97
2022-11-05T18:48:53.032Z,67.04
2022-11-05T18:59:39.759Z,66.50
2022-11-05T19:04:37.151Z,66.92
2022-11-05T19:09:43.909Z,66.66
2022-11-05T19:14:43.220Z,66.37
2022-11-05T19:19:41.607Z,66.55
2022-11-05T19:24:49.773Z,66.54
2022-11-05T19:59:52.021Z,66.08
2022-11-05T20:04:52.470Z,65.99
2022-11-05T20:09:51.203Z,66.02
2022-11-05T20:14:52.143Z,65.85
2022-11-05T20:19:57.653Z,66.00
2022-11-05T20:25:10.956Z,65.64
2022-11-05T20:30:13.059Z,65.99
2022-11-05T20:35:22.935Z,65.56
